createdAt,value
2022-08-07T00:00:31.039Z,74.12
2022-08-07T00:03:13.687Z,74.31
2022-08-07T00:05:46.439Z,74.39
2022-08-07T00:08:19.100Z,74.78
2022-08-07T00:10:57.522Z,75.08
2022-08-07T00:13:30.604Z,75.05
2022-08-07T00:16:06.528Z,75.33
2022-08-07T00:18:39.714Z,75.13
2022-08-07T00:21:56.222Z,74.91
2022-08-07T00:24:05.442Z,74.91
2022-08-07T00:26:58.970Z,74.84
2022-08-07T00:29:32.078Z,74.98
2022-08-07T00:32:05.810Z,75.04
2022-08-07T00:34:38.735Z,74.66
2022-08-07T00:37:11.108Z,74.39
2022-08-07T00:39:44.837Z,74.56
2022-08-07T00:42:17.592Z,74.57
2022-08-07T00:44:50.117Z,74.52
2022-08-07T00:48:08.302Z,74.77
2022-08-07T00:50:18.970Z,75.05
2022-08-07T00:53:09.168Z,75.14
2022-08-07T00:56:00.347Z,75.08
2022-08-07T00:58:34.538Z,75.28
2022-08-07T01:01:06.974Z,75.39
2022-08-07T01:03:55.802Z,75.65
2022-08-07T01:06:30.609Z,75.86
2022-08-07T01:09:02.937Z,75.86
2022-08-07T01:12:23.439Z,75.92
2022-08-07T01:14:29.049Z,75.99
2022-08-07T01:17:04.076Z,75.73
2022-08-07T01:19:42.048Z,75.76
2022-08-07T01:22:29.122Z,75.78
2022-08-07T01:25:40.548Z,75.81
2022-08-07T01:27:56.518Z,75.97
2022-08-07T01:30:31.124Z,76.44
2022-08-07T01:33:03.521Z,76.40
2022-08-07T01:35:54.114Z,76.26
2022-08-07T01:38:31.306Z,76.32
2022-08-07T01:41:10.452Z,76.41
2022-08-07T01:43:43.545Z,76.39
2022-08-07T01:46:16.851Z,76.01
2022-08-07T01:48:53.801Z,75.86
2022-08-07T01:52:01.986Z,75.84
2022-08-07T01:54:36.429Z,75.86
2022-08-07T01:57:24.497Z,75.52
2022-08-07T02:00:03.111Z,75.51
2022-08-07T02:03:19.442Z,75.50
2022-08-07T02:05:55.364Z,75.47
2022-08-07T02:08:38.200Z,75.41
2022-08-07T02:11:30.938Z,75.09
2022-08-07T02:14:08.422Z,74.71
2022-08-07T02:16:43.135Z,74.68
2022-08-07T02:20:07.817Z,74.96
2022-08-07T02:22:18.540Z,75.08
2022-08-07T02:24:54.108Z,74.90
2022-08-07T02:27:34.557Z,74.66
2022-08-07T02:30:09.071Z,74.85
2022-08-07T02:33:00.695Z,75.24
2022-08-07T02:36:28.382Z,75.28
2022-08-07T02:38:33.361Z,75.28
2022-08-07T02:41:07.934Z,75.36
2022-08-07T02:43:48.911Z,75.39
2022-08-07T02:46:25.871Z,75.28
2022-08-07T02:48:59.626Z,75.23
2022-08-07T02:51:42.871Z,75.31
2022-08-07T02:57:17.613Z,75.48
2022-08-07T03:00:00.862Z,75.85
2022-08-07T03:02:37.521Z,76.08
2022-08-07T03:05:24.637Z,76.24
2022-08-07T03:08:05.226Z,76.11
2022-08-07T03:10:46.665Z,75.89
2022-08-07T03:13:25.519Z,75.80
2022-08-07T03:15:59.594Z,75.82
2022-08-07T03:18:36.307Z,75.40
2022-08-07T03:21:11.406Z,75.62
2022-08-07T03:24:18.277Z,75.73
2022-08-07T03:26:50.887Z,75.73
2022-08-07T03:29:25.036Z,75.75
2022-08-07T03:32:00.655Z,75.99
2022-08-07T03:34:39.492Z,76.01
2022-08-07T03:37:27.641Z,76.08
2022-08-07T03:40:14.979Z,76.34
2022-08-07T03:42:49.447Z,76.33
2022-08-07T03:45:30.141Z,76.20
2022-08-07T03:48:09.974Z,75.76
2022-08-07T03:50:56.206Z,75.78
2022-08-07T03:54:02.060Z,75.91
2022-08-07T03:56:33.487Z,75.62
2022-08-07T03:59:13.648Z,75.10
2022-08-07T04:01:49.975Z,75.06
2022-08-07T04:04:25.404Z,75.01
2022-08-07T04:07:02.358Z,75.04
2022-08-07T04:09:51.026Z,74.64
2022-08-07T04:12:29.043Z,73.77
2022-08-07T04:15:02.495Z,73.13
2022-08-07T04:18:56.177Z,72.25
2022-08-07T04:20:32.154Z,71.03
2022-08-07T04:23:07.820Z,70.47
2022-08-07T04:25:52.295Z,69.05
2022-08-07T04:28:25.951Z,68.07
2022-08-07T04:30:59.614Z,66.83
2022-08-07T04:33:35.421Z,66.35
2022-08-07T04:36:09.877Z,65.16
2022-08-07T04:38:43.616Z,63.88
2022-08-07T04:41:19.190Z,63.16
2022-08-07T04:44:13.231Z,62.03
2022-08-07T04:47:04.612Z,60.73
2022-08-07T04:49:47.443Z,59.48
2022-08-07T04:52:51.325Z,58.42
2022-08-07T04:58:11.837Z,57.62
2022-08-07T04:58:47.621Z,56.42
2022-08-07T05:01:33.143Z,55.26
2022-08-07T05:04:17.100Z,54.30
2022-08-07T05:06:59.198Z,52.80
2022-08-07T05:09:45.796Z,52.43
2022-08-07T05:12:30.545Z,51.98
2022-08-07T05:15:23.073Z,50.22
2022-08-07T05:18:08.519Z,49.32
2022-08-07T05:20:45.037Z,49.12
2022-08-07T05:23:23.223Z,48.22
2022-08-07T05:26:13.822Z,47.61
2022-08-07T05:28:56.513Z,46.93
2022-08-07T05:31:35.191Z,46.38
2022-08-07T05:34:13.452Z,45.30
2022-08-07T05:36:52.731Z,44.01
2022-08-07T05:40:06.529Z,43.58
2022-08-07T05:42:33.761Z,43.19
2022-08-07T05:45:25.711Z,43.07
2022-08-07T05:48:05.334Z,42.41
2022-08-07T05:50:50.733Z,42.96
2022-08-07T05:54:13.598Z,42.80
2022-08-07T05:56:26.916Z,43.42
2022-08-07T05:59:10.026Z,43.47
2022-08-07T06:01:48.655Z,42.52
2022-08-07T06:04:26.371Z,42.19
2022-08-07T06:07:05.984Z,43.05
2022-08-07T06:09:45.065Z,42.56
2022-08-07T06:12:35.299Z,42.77
2022-08-07T06:15:16.046Z,42.98
2022-08-07T06:17:53.953Z,42.76
2022-08-07T06:20:49.854Z,43.05
2022-08-07T06:23:46.320Z,43.09
2022-08-07T06:26:16.938Z,42.98
2022-08-07T06:28:54.847Z,42.71
2022-08-07T06:31:46.644Z,42.79
2022-08-07T06:34:21.612Z,41.63
2022-08-07T06:36:55.724Z,41.50
2022-08-07T06:40:17.950Z,41.40
2022-08-07T06:42:34.861Z,39.82
2022-08-07T06:45:18.587Z,41.08
2022-08-07T06:47:59.147Z,40.18
2022-08-07T06:50:47.642Z,40.28
2022-08-07T06:55:28.865Z,39.12
2022-08-07T06:56:49.740Z,39.36
2022-08-07T07:00:12.872Z,38.03
2022-08-07T07:02:53.792Z,37.99
2022-08-07T07:06:05.764Z,38.56
2022-08-07T07:08:18.687Z,37.94
2022-08-07T07:10:58.982Z,38.53
2022-08-07T07:13:43.683Z,38.26
2022-08-07T07:16:32.233Z,37.64
2022-08-07T07:19:55.526Z,36.64
2022-08-07T07:22:35.721Z,34.50
2022-08-07T07:25:26.193Z,34.76
2022-08-07T07:28:03.312Z,35.63
2022-08-07T07:30:45.723Z,34.60
2022-08-07T07:33:20.800Z,35.09
2022-08-07T07:36:05.095Z,35.13
2022-08-07T07:38:37.954Z,35.67
2022-08-07T07:41:13.566Z,35.40
2022-08-07T07:44:16.856Z,34.14
2022-08-07T07:46:55.176Z,34.71
2022-08-07T07:50:33.100Z,34.06
2022-08-07T07:52:27.078Z,34.47
2022-08-07T07:55:01.811Z,33.63
2022-08-07T07:57:53.315Z,33.60
2022-08-07T08:00:31.397Z,32.82
2022-08-07T08:03:16.989Z,32.44
2022-08-07T08:06:02.495Z,32.50
2022-08-07T08:08:39.387Z,31.84
2022-08-07T08:11:17.973Z,31.10
2022-08-07T08:14:07.871Z,31.27
2022-08-07T08:16:50.336Z,31.52
2022-08-07T08:20:17.859Z,31.45
2022-08-07T08:22:55.989Z,32.26
2022-08-07T08:25:49.355Z,32.38
2022-08-07T08:28:38.101Z,31.89
2022-08-07T08:31:18.297Z,32.42
2022-08-07T08:34:05.694Z,31.69
2022-08-07T08:36:46.342Z,31.21
2022-08-07T08:39:18.831Z,30.53
2022-08-07T08:41:57.883Z,30.11
2022-08-07T08:44:44.292Z,30.67
2022-08-07T08:47:27.831Z,29.99
2022-08-07T08:50:06.045Z,28.63
2022-08-07T08:52:54.212Z,28.32
2022-08-07T08:55:55.047Z,28.75
2022-08-07T08:58:33.254Z,29.48
2022-08-07T09:01:18.762Z,28.93
2022-08-07T09:03:59.841Z,29.25
2022-08-07T09:06:42.728Z,28.65
2022-08-07T09:09:36.802Z,28.42
2022-08-07T09:12:30.473Z,26.51
2022-08-07T09:16:24.187Z,26.16
2022-08-07T09:18:22.806Z,25.40
2022-08-07T09:21:06.037Z,25.04
2022-08-07T09:24:49.117Z,25.93
2022-08-07T09:26:57.065Z,25.71
2022-08-07T09:30:03.804Z,25.63
2022-08-07T09:32:52.342Z,25.68
2022-08-07T09:36:05.014Z,25.38
2022-08-07T09:38:36.610Z,25.82
2022-08-07T09:41:24.018Z,25.97
2022-08-07T09:44:19.183Z,26.51
2022-08-07T09:47:55.261Z,25.61
2022-08-07T09:50:19.147Z,25.68
2022-08-07T09:52:53.811Z,26.28
2022-08-07T09:56:03.533Z,25.92
2022-08-07T09:58:58.917Z,26.60
2022-08-07T10:01:51.943Z,25.21
2022-08-07T10:04:39.352Z,25.52
2022-08-07T10:07:52.965Z,25.51
2022-08-07T10:11:00.318Z,25.96
2022-08-07T10:14:01.277Z,25.99
2022-08-07T10:16:59.432Z,26.04
2022-08-07T10:19:50.480Z,26.79
2022-08-07T10:22:36.809Z,27.03
2022-08-07T10:25:22.999Z,28.03
2022-08-07T10:28:24.334Z,28.05
2022-08-07T10:31:14.473Z,27.51
2022-08-07T10:34:15.818Z,27.25
2022-08-07T10:37:12.370Z,26.89
2022-08-07T10:40:05.971Z,27.30
2022-08-07T10:42:47.499Z,27.31
2022-08-07T10:45:44.809Z,27.09
2022-08-07T10:48:36.232Z,28.18
2022-08-07T10:51:16.574Z,27.87
2022-08-07T10:54:17.412Z,28.33
2022-08-07T10:57:07.131Z,28.34
2022-08-07T10:59:58.064Z,28.04
2022-08-07T11:02:38.102Z,27.76
2022-08-07T11:05:35.704Z,28.56
2022-08-07T11:08:29.077Z,29.33
2022-08-07T11:11:09.291Z,29.49
2022-08-07T11:14:57.367Z,29.27
2022-08-07T11:16:51.272Z,28.44
2022-08-07T11:19:35.889Z,28.88
2022-08-07T11:22:26.622Z,28.75
2022-08-07T11:25:14.885Z,29.67
2022-08-07T11:28:03.295Z,30.91
2022-08-07T11:30:46.696Z,30.95
2022-08-07T11:33:59.474Z,31.27
2022-08-07T11:36:38.896Z,30.80
2022-08-07T11:39:59.057Z,30.90
2022-08-07T11:42:38.368Z,31.84
2022-08-07T11:45:20.377Z,31.25
2022-08-07T11:48:18.237Z,31.35
2022-08-07T11:51:41.309Z,32.23
2022-08-07T11:54:37.536Z,32.64
2022-08-07T11:57:57.933Z,32.44
2022-08-07T12:00:20.325Z,32.03
2022-08-07T12:03:42.165Z,32.74
2022-08-07T12:06:57.236Z,33.17
2022-08-07T12:09:57.387Z,32.74
2022-08-07T12:12:36.672Z,32.69
2022-08-07T12:15:46.201Z,32.69
2022-08-07T12:18:22.316Z,32.66
2022-08-07T12:21:21.152Z,32.54
2022-08-07T12:24:38.124Z,32.00
2022-08-07T12:27:17.161Z,32.13
2022-08-07T12:29:57.695Z,32.63
2022-08-07T12:32:38.107Z,32.15
2022-08-07T12:35:14.658Z,32.57
2022-08-07T12:38:11.610Z,32.44
2022-08-07T12:40:50.438Z,33.49
2022-08-07T12:44:02.790Z,32.34
2022-08-07T12:46:37.374Z,32.71
2022-08-07T12:49:40.199Z,33.00
2022-08-07T12:52:34.096Z,33.41
2022-08-07T12:55:17.906Z,33.09
2022-08-07T12:58:01.395Z,33.09
2022-08-07T13:00:49.963Z,33.81
2022-08-07T13:03:59.352Z,34.15
2022-08-07T13:07:00.451Z,33.72
2022-08-07T13:10:38.214Z,33.81
2022-08-07T13:13:47.165Z,33.52
2022-08-07T13:16:22.830Z,33.18
2022-08-07T13:19:11.412Z,33.23
2022-08-07T13:22:04.128Z,33.87
2022-08-07T13:24:54.143Z,34.42
2022-08-07T13:28:05.818Z,34.65
2022-08-07T13:30:41.301Z,34.75
2022-08-07T13:34:29.973Z,35.12
2022-08-07T13:36:27.363Z,34.89
2022-08-07T13:39:12.690Z,34.26
2022-08-07T13:41:54.926Z,34.14
2022-08-07T13:44:34.661Z,34.18
2022-08-07T13:47:15.746Z,34.46
2022-08-07T13:50:33.118Z,34.43
2022-08-07T13:52:46.974Z,33.96
2022-08-07T13:55:26.310Z,33.97
2022-08-07T13:58:27.972Z,34.01
2022-08-07T14:01:12.663Z,34.55
2022-08-07T14:04:06.835Z,34.96
2022-08-07T14:06:59.916Z,35.41
2022-08-07T14:10:12.386Z,36.05
2022-08-07T14:12:58.623Z,36.26
2022-08-07T14:15:38.205Z,36.44
2022-08-07T14:18:29.130Z,35.98
2022-08-07T14:22:00.554Z,35.88
2022-08-07T14:24:10.022Z,35.73
2022-08-07T14:26:51.203Z,35.45
2022-08-07T14:30:04.954Z,35.92
2022-08-07T14:32:26.897Z,35.55
2022-08-07T14:38:03.234Z,34.60
2022-08-07T14:40:38.931Z,34.78
2022-08-07T14:43:55.204Z,35.84
2022-08-07T14:46:08.854Z,35.48
2022-08-07T14:48:43.649Z,35.66
2022-08-07T14:51:28.002Z,35.71
2022-08-07T14:54:32.972Z,35.87
2022-08-07T14:57:19.177Z,35.64
2022-08-07T15:00:03.206Z,35.83
2022-08-07T15:02:39.568Z,35.62
2022-08-07T15:05:20.372Z,35.33
2022-08-07T15:07:59.122Z,35.21
2022-08-07T15:10:32.004Z,35.47
2022-08-07T15:13:11.716Z,36.06
2022-08-07T15:15:53.507Z,36.34
2022-08-07T15:18:40.235Z,36.82
2022-08-07T15:25:14.522Z,37.30
2022-08-07T15:27:32.894Z,37.23
2022-08-07T15:30:19.529Z,37.43
2022-08-07T15:33:05.562Z,37.18
2022-08-07T15:36:05.391Z,37.35
2022-08-07T15:38:59.138Z,37.36
2022-08-07T15:42:44.482Z,37.54
2022-08-07T15:48:29.850Z,37.63
2022-08-07T15:51:21.254Z,37.96
2022-08-07T15:54:28.141Z,38.31
2022-08-07T15:57:40.028Z,38.31
2022-08-07T16:00:31.355Z,37.65
2022-08-07T16:03:47.382Z,37.62
2022-08-07T16:06:32.002Z,37.58
2022-08-07T16:09:10.069Z,37.76
2022-08-07T16:12:15.051Z,37.93
2022-08-07T16:15:57.624Z,38.12
2022-08-07T16:18:52.519Z,38.29
2022-08-07T16:22:05.179Z,38.27
2022-08-07T16:24:59.629Z,38.74
2022-08-07T16:27:57.309Z,39.25
2022-08-07T16:31:02.918Z,39.78
2022-08-07T16:34:10.462Z,39.89
2022-08-07T16:38:07.399Z,40.01
2022-08-07T16:40:57.006Z,40.14
2022-08-07T16:44:04.232Z,40.22
2022-08-07T16:47:12.051Z,40.53
2022-08-07T16:50:37.128Z,40.76
2022-08-07T16:54:06.734Z,40.87
2022-08-07T16:56:56.760Z,41.00
2022-08-07T16:59:46.188Z,41.03
2022-08-07T17:02:53.529Z,41.40
2022-08-07T17:06:19.413Z,41.11
2022-08-07T17:09:09.106Z,41.64
2022-08-07T17:12:01.370Z,41.40
2022-08-07T17:14:48.151Z,41.50
2022-08-07T17:17:46.525Z,41.55
2022-08-07T17:20:31.136Z,41.80
2022-08-07T17:23:32.008Z,42.03
2022-08-07T17:26:24.052Z,42.38
2022-08-07T17:30:12.578Z,42.88
2022-08-07T17:32:30.999Z,42.79
2022-08-07T17:35:51.557Z,43.08
2022-08-07T17:38:33.859Z,43.52
2022-08-07T17:42:01.766Z,43.37
2022-08-07T17:44:33.732Z,43.54
2022-08-07T17:47:16.841Z,43.77
2022-08-07T17:49:55.537Z,43.98
2022-08-07T17:52:39.793Z,43.97
2022-08-07T17:56:00.723Z,44.13
2022-08-07T17:58:30.091Z,44.26
2022-08-07T18:01:20.770Z,44.49
2022-08-07T18:04:16.224Z,44.70
2022-08-07T18:07:20.081Z,45.04
2022-08-07T18:10:05.834Z,45.26
2022-08-07T18:13:06.877Z,45.43
2022-08-07T18:15:53.572Z,45.61
2022-08-07T18:21:01.536Z,45.83
2022-08-07T18:21:54.889Z,46.06
2022-08-07T18:24:34.228Z,46.37
2022-08-07T18:27:20.960Z,46.50
2022-08-07T18:30:32.977Z,46.70
2022-08-07T18:33:32.893Z,46.67
2022-08-07T18:36:32.687Z,47.00
2022-08-07T18:40:07.086Z,47.13
2022-08-07T18:42:28.872Z,47.22
2022-08-07T18:45:44.277Z,47.26
2022-08-07T18:48:09.394Z,47.44
2022-08-07T18:51:00.628Z,47.42
2022-08-07T18:53:48.710Z,47.82
2022-08-07T18:56:57.806Z,47.90
2022-08-07T18:59:58.901Z,48.19
2022-08-07T19:02:42.162Z,48.31
2022-08-07T19:05:27.934Z,48.58
2022-08-07T19:08:27.199Z,48.92
2022-08-07T19:11:35.852Z,49.01
2022-08-07T19:14:11.606Z,49.48
2022-08-07T19:17:07.766Z,49.48
2022-08-07T19:19:57.526Z,49.60
2022-08-07T19:22:38.046Z,49.61
2022-08-07T19:26:21.922Z,49.64
2022-08-07T19:28:57.686Z,49.74
2022-08-07T19:31:41.958Z,49.90
2022-08-07T19:34:33.791Z,50.07
2022-08-07T19:37:17.475Z,50.07
2022-08-07T19:40:02.034Z,50.23
2022-08-07T19:42:42.722Z,50.49
2022-08-07T19:46:04.763Z,50.71
2022-08-07T19:48:23.925Z,50.85
2022-08-07T19:50:58.979Z,50.98
2022-08-07T19:54:32.447Z,51.24
2022-08-07T19:57:51.156Z,51.37
2022-08-07T19:59:41.055Z,51.66
2022-08-07T20:02:27.019Z,51.89
2022-08-07T20:05:02.143Z,51.93
2022-08-07T20:07:47.716Z,52.12
2022-08-07T20:10:35.651Z,52.48
2022-08-07T20:13:33.253Z,52.58
2022-08-07T20:16:32.376Z,52.77
2022-08-07T20:19:04.477Z,53.08
2022-08-07T20:21:42.293Z,53.30
2022-08-07T20:24:19.106Z,53.44
2022-08-07T20:26:54.902Z,53.70
2022-08-07T20:29:49.493Z,53.89
2022-08-07T20:32:40.329Z,54.01
2022-08-07T20:35:17.777Z,54.48
2022-08-07T20:37:58.798Z,54.54
2022-08-07T20:40:39.513Z,54.64
2022-08-07T20:43:19.415Z,54.79
2022-08-07T20:46:27.638Z,54.83
2022-08-07T20:49:54.305Z,54.73
2022-08-07T20:51:50.233Z,54.85
2022-08-07T20:54:30.259Z,55.17
2022-08-07T20:57:10.177Z,55.16
2022-08-07T21:00:08.326Z,55.22
2022-08-07T21:05:54.339Z,55.62
2022-08-07T21:08:40.751Z,55.69
2022-08-07T21:11:16.701Z,55.97
2022-08-07T21:14:20.257Z,55.92
2022-08-07T21:17:06.615Z,56.07
2022-08-07T21:19:51.876Z,56.42
2022-08-07T21:22:45.123Z,56.42
2022-08-07T21:25:38.762Z,56.43
2022-08-07T21:28:16.718Z,56.50
2022-08-07T21:31:03.665Z,56.40
2022-08-07T21:33:44.915Z,56.61
2022-08-07T21:36:31.078Z,56.68
2022-08-07T21:39:47.181Z,56.83
2022-08-07T21:42:41.777Z,56.82
2022-08-07T21:46:08.469Z,57.37
2022-08-07T21:48:29.318Z,57.52
2022-08-07T21:51:20.286Z,57.67
2022-08-07T21:54:06.306Z,57.79
2022-08-07T21:56:48.256Z,58.02
2022-08-07T22:00:02.863Z,57.92
2022-08-07T22:02:35.474Z,58.16
2022-08-07T22:05:12.168Z,58.31
2022-08-07T22:07:59.328Z,58.39
2022-08-07T22:10:35.469Z,58.63
2022-08-07T22:13:13.777Z,58.63
2022-08-07T22:16:44.187Z,58.74
2022-08-07T22:18:50.919Z,59.01
2022-08-07T22:22:05.267Z,59.03
2022-08-07T22:24:32.865Z,59.20
2022-08-07T22:27:16.003Z,59.54
2022-08-07T22:29:55.745Z,59.75
2022-08-07T22:32:42.269Z,59.65
2022-08-07T22:35:16.046Z,59.53
2022-08-07T22:38:03.432Z,59.64
2022-08-07T22:40:45.667Z,59.58
2022-08-07T22:43:23.482Z,59.64
2022-08-07T22:46:47.065Z,59.46
2022-08-07T22:49:33.833Z,59.60
2022-08-07T22:52:40.090Z,59.55
2022-08-07T22:55:48.046Z,59.46
2022-08-07T22:58:56.566Z,59.51
2022-08-07T23:01:49.952Z,59.80
2022-08-07T23:04:58.122Z,60.08
2022-08-07T23:07:54.113Z,60.29
2022-08-07T23:10:42.018Z,60.41
2022-08-07T23:14:08.795Z,60.57
2022-08-07T23:16:55.069Z,60.67
2022-08-07T23:19:58.010Z,60.62
2022-08-07T23:22:45.318Z,60.60
2022-08-07T23:25:33.718Z,60.63
2022-08-07T23:28:37.673Z,60.71
2022-08-07T23:32:49.124Z,60.85
2022-08-07T23:34:40.617Z,60.81
2022-08-07T23:38:01.138Z,61.09
2022-08-07T23:40:39.659Z,61.42
2022-08-07T23:43:38.078Z,61.47
2022-08-07T23:46:29.417Z,61.63
2022-08-07T23:49:42.456Z,61.48
2022-08-07T23:53:15.204Z,61.58
2022-08-07T23:55:52.301Z,61.71
2022-08-07T23:58:37.457Z,61.63
